Time;durP1;ratioP1;P1;durP2;ratioP2;P2;SDS_P1;SDS_P2;PMS_P1;PMS_P2;Temp;Humidity;BMP_temperature;BMP_pressure;BME280_temperature;BME280_humidity;BME280_pressure;Samples;Min_cycle;Max_cycle;Signal;HPM_P1;HPM_P2
2021/03/16 00:00:50;;;;;;;4.62;1.60;;;8.80;70.50;;;;;;2327929;54;20936;-67
2021/03/16 00:03:18;;;;;;;4.25;1.55;;;8.80;70.50;;;;;;2309829;54;20924;-66
2021/03/16 00:05:45;;;;;;;5.57;1.75;;;8.80;70.40;;;;;;2328856;53;21418;-67
2021/03/16 00:08:12;;;;;;;3.83;1.75;;;8.80;70.50;;;;;;2329014;54;21127;-66
2021/03/16 00:10:38;;;;;;;4.65;1.87;;;8.80;70.50;;;;;;2330268;54;21441;-66
2021/03/16 00:13:07;;;;;;;4.62;2.30;;;8.80;70.60;;;;;;2573709;52;21935;-66
2021/03/16 00:15:36;;;;;;;3.85;2.15;;;8.80;70.50;;;;;;2327704;53;21071;-66
2021/03/16 00:18:03;;;;;;;4.85;2.75;;;8.80;70.60;;;;;;2569693;52;21016;-66
2021/03/16 00:20:32;;;;;;;9.73;4.10;;;8.80;71.10;;;;;;2328981;53;21752;-65
2021/03/16 00:22:58;;;;;;;5.93;3.03;;;8.80;70.50;;;;;;2329440;54;20976;-66
2021/03/16 00:25:25;;;;;;;5.07;2.67;;;8.80;70.40;;;;;;2573555;52;21378;-66
2021/03/16 00:27:55;;;;;;;7.75;2.95;;;8.80;70.30;;;;;;2334901;53;20969;-66
2021/03/16 00:30:21;;;;;;;4.72;2.67;;;8.80;70.30;;;;;;2323046;53;20963;-66
2021/03/16 00:32:48;;;;;;;4.45;2.10;;;8.80;70.30;;;;;;2556887;52;20999;-66
2021/03/16 00:35:16;;;;;;;4.45;2.58;;;8.80;70.30;;;;;;2321439;53;21522;-67
2021/03/16 00:37:42;;;;;;;4.43;2.55;;;8.80;70.20;;;;;;2570594;53;21026;-67
2021/03/16 00:40:10;;;;;;;5.45;2.55;;;8.80;70.10;;;;;;2304898;53;21800;-65
2021/03/16 00:42:36;;;;;;;5.07;2.70;;;8.80;70.30;;;;;;2338247;53;21429;-65
2021/03/16 00:45:06;;;;;;;4.85;2.80;;;8.70;70.20;;;;;;2565664;52;20967;-66
2021/03/16 00:47:33;;;;;;;4.85;2.35;;;8.70;70.10;;;;;;2331886;53;20919;-66
2021/03/16 00:50:02;;;;;;;5.22;2.05;;;8.70;70.10;;;;;;2341136;53;21036;-65
2021/03/16 00:52:28;;;;;;;3.45;1.95;;;8.70;70.20;;;;;;2324798;53;20957;-66
2021/03/16 00:54:58;;;;;;;4.40;2.03;;;8.70;70.20;;;;;;2319520;53;21692;-66
2021/03/16 00:57:25;;;;;;;5.50;2.67;;;8.70;70.10;;;;;;2539516;53;21075;-66
2021/03/16 00:59:52;;;;;;;3.75;1.60;;;8.70;70.20;;;;;;2312694;55;21043;-66
2021/03/16 01:02:27;;;;;;;3.08;1.50;;;8.70;70.20;;;;;;2320272;55;20951;-67
2021/03/16 01:04:53;;;;;;;4.35;1.67;;;8.70;70.10;;;;;;2322796;54;21016;-66
2021/03/16 01:07:19;;;;;;;4.40;2.00;;;8.70;70.30;;;;;;2342737;54;21354;-66
2021/03/16 01:09:46;;;;;;;3.70;1.83;;;8.70;70.30;;;;;;2590131;53;20985;-66
2021/03/16 01:12:12;;;;;;;4.07;1.83;;;8.80;70.40;;;;;;2589946;52;21505;-65
2021/03/16 01:14:39;;;;;;;4.10;1.55;;;8.70;70.30;;;;;;2343126;54;20964;-65
2021/03/16 01:17:05;;;;;;;2.80;1.30;;;8.70;70.30;;;;;;2588526;52;20965;-67
2021/03/16 01:19:32;;;;;;;4.22;1.70;;;8.70;70.30;;;;;;2583272;52;21026;-66
2021/03/16 01:21:58;;;;;;;3.70;1.50;;;8.60;70.30;;;;;;2591140;52;20944;-65
2021/03/16 01:24:25;;;;;;;3.35;1.80;;;8.60;70.30;;;;;;2562591;53;21748;-66
2021/03/16 01:26:51;;;;;;;4.70;1.50;;;8.70;70.30;;;;;;2590193;52;20912;-66
2021/03/16 01:29:17;;;;;;;3.40;1.20;;;8.70;70.40;;;;;;2590196;52;20964;-66
2021/03/16 01:31:44;;;;;;;2.75;1.45;;;8.60;70.30;;;;;;2590332;53;20996;-66
2021/03/16 01:34:10;;;;;;;3.03;1.27;;;8.60;70.40;;;;;;2346733;53;20927;-66
2021/03/16 01:36:37;;;;;;;3.05;1.60;;;8.60;70.40;;;;;;2589905;52;21516;-66
2021/03/16 01:39:04;;;;;;;4.03;1.65;;;8.60;70.40;;;;;;2590298;53;20974;-66
2021/03/16 01:41:31;;;;;;;4.62;1.42;;;8.60;70.40;;;;;;2589697;53;21508;-66
2021/03/16 01:43:57;;;;;;;2.70;1.37;;;8.60;70.40;;;;;;2590064;53;21006;-66
2021/03/16 01:46:23;;;;;;;2.95;1.35;;;8.60;70.40;;;;;;2587335;52;21497;-65
2021/03/16 01:48:52;;;;;;;3.60;1.60;;;8.60;70.40;;;;;;2341860;54;20932;-67
2021/03/16 01:51:18;;;;;;;3.85;1.55;;;8.60;70.30;;;;;;2341853;54;20972;-66
2021/03/16 01:53:44;;;;;;;2.70;1.40;;;8.60;70.30;;;;;;2342004;54;21052;-65
2021/03/16 01:56:26;;;;;;;3.15;1.35;;;8.60;70.30;;;;;;2339408;54;21388;-66
2021/03/16 01:58:58;;;;;;;2.53;1.23;;;8.60;70.20;;;;;;2339827;53;20923;-65
2021/03/16 02:01:25;;;;;;;4.15;1.62;;;8.60;70.00;;;;;;2332717;54;20963;-66
2021/03/16 02:03:54;;;;;;;5.10;1.45;;;8.60;70.10;;;;;;2330836;54;23245;-66
2021/03/16 02:07:58;;;;;;;4.62;2.12;;;8.60;70.10;;;;;;2573396;52;20972;-66
2021/03/16 02:11:00;;;;;;;4.03;1.55;;;8.60;68.90;;;;;;2572239;52;20990;-66
2021/03/16 02:13:37;;;;;;;4.25;1.60;;;8.60;69.70;;;;;;2572873;53;20981;-66
2021/03/16 02:16:13;;;;;;;4.15;1.67;;;8.60;69.80;;;;;;2333300;53;21782;-67
2021/03/16 02:18:53;;;;;;;3.45;1.42;;;8.60;69.90;;;;;;2563617;52;21392;-66
2021/03/16 02:21:21;;;;;;;6.50;1.80;;;8.50;69.80;;;;;;2325722;53;21754;-68
2021/03/16 02:30:38;;;;;;;4.53;1.90;;;8.50;70.10;;;;;;2566608;53;21627;-66
2021/03/16 02:33:07;;;;;;;3.85;1.15;;;8.50;69.10;;;;;;2333959;54;21039;-66
2021/03/16 02:35:34;;;;;;;3.72;1.50;;;8.50;70.10;;;;;;2581760;53;21420;-65
2021/03/16 02:38:03;;;;;;;3.00;1.50;;;8.40;70.10;;;;;;2343879;54;21024;-66
2021/03/16 02:40:29;;;;;;;4.90;1.48;;;8.40;70.20;;;;;;2561572;53;20931;-66
2021/03/16 02:42:55;;;;;;;3.50;1.30;;;8.40;70.10;;;;;;2341512;53;20983;-66
2021/03/16 02:45:22;;;;;;;3.72;1.42;;;8.40;70.20;;;;;;2587373;53;21940;-66
2021/03/16 02:47:49;;;;;;;6.62;1.48;;;8.40;70.30;;;;;;2328771;53;20939;-66
2021/03/16 02:50:15;;;;;;;3.10;1.48;;;8.40;70.20;;;;;;2587931;52;21007;-65
2021/03/16 02:52:52;;;;;;;3.83;1.40;;;8.40;70.30;;;;;;2341444;53;21347;-66
2021/03/16 02:55:18;;;;;;;2.60;1.20;;;8.40;70.20;;;;;;2342118;54;20960;-65
2021/03/16 02:57:45;;;;;;;3.17;1.60;;;8.40;70.20;;;;;;2345394;54;21068;-66
2021/03/16 03:00:12;;;;;;;3.42;1.33;;;8.40;70.20;;;;;;2340629;53;20995;-66
2021/03/16 03:02:39;;;;;;;5.10;1.30;;;8.40;70.20;;;;;;2341761;54;20992;-66
2021/03/16 03:05:07;;;;;;;2.65;1.17;;;8.40;70.20;;;;;;2587727;53;20967;-66
2021/03/16 03:07:34;;;;;;;3.58;1.50;;;8.40;70.10;;;;;;2341578;54;20932;-66
2021/03/16 03:10:00;;;;;;;4.28;1.58;;;8.40;70.10;;;;;;2587774;52;22491;-66
2021/03/16 03:12:26;;;;;;;2.92;1.48;;;8.50;70.00;;;;;;2334406;53;21456;-65
2021/03/16 03:14:53;;;;;;;4.45;1.42;;;8.40;69.90;;;;;;2584642;52;20983;-66
2021/03/16 03:17:20;;;;;;;4.37;1.45;;;8.40;69.90;;;;;;2583727;52;21054;-66
2021/03/16 03:19:46;;;;;;;3.85;1.10;;;8.40;69.90;;;;;;2579461;52;20983;-66
2021/03/16 03:22:30;;;;;;;5.57;1.55;;;8.40;69.90;;;;;;2581685;53;20948;-65
2021/03/16 03:25:04;;;;;;;3.80;1.42;;;8.30;69.50;;;;;;2338243;53;21014;-67
2021/03/16 03:27:33;;;;;;;2.60;1.30;;;8.30;69.80;;;;;;2338937;53;21514;-66
2021/03/16 03:30:00;;;;;;;2.72;1.17;;;8.40;69.90;;;;;;2342738;53;20992;-66
2021/03/16 03:32:28;;;;;;;3.92;1.33;;;8.30;69.80;;;;;;2573688;52;20994;-66
2021/03/16 03:34:54;;;;;;;3.37;1.23;;;8.30;69.80;;;;;;2587639;52;20984;-65
2021/03/16 03:37:23;;;;;;;4.62;1.52;;;8.30;69.90;;;;;;2340824;53;20956;-65
2021/03/16 03:39:53;;;;;;;3.47;1.45;;;8.30;69.80;;;;;;2587656;52;21032;-66
2021/03/16 03:42:19;;;;;;;2.78;1.20;;;8.30;69.90;;;;;;2586954;52;20977;-65
2021/03/16 03:44:46;;;;;;;2.87;1.10;;;8.30;70.70;;;;;;2343394;53;20935;-65
2021/03/16 03:47:16;;;;;;;2.85;1.08;;;8.30;70.10;;;;;;2586875;52;21582;-65
2021/03/16 03:49:43;;;;;;;3.20;1.23;;;8.30;70.10;;;;;;2588752;53;21458;-65
2021/03/16 03:52:16;;;;;;;2.62;1.30;;;8.30;70.10;;;;;;2588431;52;20936;-66
2021/03/16 03:54:45;;;;;;;4.15;2.10;;;8.30;69.80;;;;;;2588442;52;21032;-66
2021/03/16 03:57:14;;;;;;;3.62;1.33;;;8.40;69.90;;;;;;2345275;53;21939;-66
2021/03/16 03:59:41;;;;;;;3.83;1.25;;;8.30;70.00;;;;;;2587762;53;20980;-66
2021/03/16 04:02:08;;;;;;;3.42;1.20;;;8.30;70.00;;;;;;2587859;53;20904;-65
2021/03/16 04:04:37;;;;;;;2.35;0.98;;;8.30;70.00;;;;;;2345785;53;20966;-66
2021/03/16 04:07:03;;;;;;;2.55;1.00;;;8.40;69.90;;;;;;2586499;53;20939;-66
2021/03/16 04:09:33;;;;;;;3.37;0.95;;;8.40;70.00;;;;;;2588185;52;20983;-66
2021/03/16 04:11:59;;;;;;;4.55;1.20;;;8.40;69.90;;;;;;2344465;53;21004;-66
2021/03/16 04:14:28;;;;;;;4.28;1.40;;;8.40;69.90;;;;;;2337001;53;20952;-66
2021/03/16 04:16:55;;;;;;;2.53;1.15;;;8.40;69.80;;;;;;2339369;53;20975;-66
2021/03/16 04:19:22;;;;;;;2.33;1.23;;;8.40;69.80;;;;;;2588086;52;21485;-65
2021/03/16 04:21:49;;;;;;;4.12;1.17;;;8.40;69.80;;;;;;2588294;52;21845;-65
2021/03/16 04:24:15;;;;;;;4.10;1.50;;;8.40;69.80;;;;;;2341996;54;21012;-66
2021/03/16 04:26:42;;;;;;;2.35;1.15;;;8.40;69.80;;;;;;2587272;53;21423;-67
2021/03/16 04:29:11;;;;;;;3.50;1.00;;;8.40;69.80;;;;;;2588669;52;20957;-66
2021/03/16 04:31:38;;;;;;;4.53;1.42;;;8.40;69.80;;;;;;2561076;53;21595;-66
2021/03/16 04:34:04;;;;;;;3.08;1.08;;;8.40;69.70;;;;;;2586497;52;20916;-65
2021/03/16 04:36:32;;;;;;;2.90;1.12;;;8.40;69.70;;;;;;2349921;53;20988;-66
2021/03/16 04:38:58;;;;;;;2.35;0.93;;;8.40;69.80;;;;;;2339431;53;21948;-65
2021/03/16 04:41:27;;;;;;;2.65;1.08;;;8.30;69.70;;;;;;2340952;53;21037;-66
2021/03/16 04:43:55;;;;;;;4.90;1.40;;;8.30;69.70;;;;;;2341523;54;20984;-65
2021/03/16 04:46:21;;;;;;;3.65;1.70;;;8.30;69.70;;;;;;2341748;54;21559;-66
2021/03/16 04:48:47;;;;;;;4.15;1.30;;;8.40;69.80;;;;;;2341330;54;21718;-65
2021/03/16 04:51:14;;;;;;;4.75;1.50;;;8.30;69.60;;;;;;2345270;53;20947;-65
2021/03/16 04:53:40;;;;;;;3.30;1.30;;;8.30;69.60;;;;;;2587504;52;21784;-65
2021/03/16 04:56:07;;;;;;;4.05;1.60;;;8.30;69.60;;;;;;2349206;53;21412;-65
2021/03/16 04:58:37;;;;;;;2.67;1.17;;;8.30;69.60;;;;;;2344832;53;21362;-66
2021/03/16 05:01:03;;;;;;;3.62;1.40;;;8.30;69.60;;;;;;2581358;52;21565;-66
2021/03/16 05:03:30;;;;;;;2.60;1.05;;;8.30;69.70;;;;;;2341068;53;21020;-65
2021/03/16 05:05:58;;;;;;;4.22;1.65;;;8.30;69.70;;;;;;2584351;52;21032;-67
2021/03/16 05:08:25;;;;;;;4.90;1.60;;;8.30;69.70;;;;;;2583080;52;21004;-66
2021/03/16 05:10:52;;;;;;;5.95;1.12;;;8.30;69.60;;;;;;2336955;53;21695;-66
2021/03/16 05:13:20;;;;;;;3.28;1.25;;;8.30;69.70;;;;;;2580155;53;21528;-66
2021/03/16 05:15:46;;;;;;;3.92;1.17;;;8.30;69.70;;;;;;2332524;54;20920;-65
2021/03/16 05:18:13;;;;;;;5.95;1.20;;;8.30;69.70;;;;;;2577023;53;20945;-66
2021/03/16 05:20:39;;;;;;;2.15;1.00;;;8.30;69.70;;;;;;2333275;53;21721;-66
2021/03/16 05:23:08;;;;;;;4.45;1.25;;;8.30;69.70;;;;;;2573317;52;21046;-66
2021/03/16 05:25:39;;;;;;;3.90;1.37;;;8.20;69.50;;;;;;2332059;53;21014;-65
2021/03/16 05:28:05;;;;;;;3.25;1.00;;;8.30;69.60;;;;;;2329032;53;20990;-66
2021/03/16 05:30:32;;;;;;;3.58;0.88;;;8.30;69.70;;;;;;2321221;53;21000;-66
2021/03/16 05:32:59;;;;;;;4.18;1.10;;;8.30;69.60;;;;;;2320785;54;20947;-66
2021/03/16 05:35:27;;;;;;;4.45;1.12;;;8.30;69.70;;;;;;2330851;53;21094;-67
2021/03/16 05:37:55;;;;;;;4.32;1.27;;;8.30;69.70;;;;;;2587334;52;20932;-65
2021/03/16 05:40:26;;;;;;;2.78;1.33;;;8.30;69.70;;;;;;2341599;53;21016;-66
2021/03/16 05:42:53;;;;;;;2.75;1.10;;;8.30;69.70;;;;;;2588519;52;20932;-66
2021/03/16 05:45:19;;;;;;;3.20;1.45;;;8.30;69.70;;;;;;2587870;52;20952;-66
2021/03/16 05:47:46;;;;;;;2.92;1.10;;;8.30;69.80;;;;;;2341630;54;21495;-66
2021/03/16 05:50:16;;;;;;;5.95;1.25;;;8.30;69.70;;;;;;2558658;53;21075;-69
2021/03/16 05:52:42;;;;;;;4.93;2.10;;;8.30;69.80;;;;;;2341282;54;21032;-66
2021/03/16 05:55:10;;;;;;;2.72;1.40;;;8.30;69.80;;;;;;2341148;54;21449;-65
2021/03/16 05:57:37;;;;;;;5.32;1.73;;;8.30;69.60;;;;;;2341145;54;21064;-66
2021/03/16 06:00:07;;;;;;;4.18;1.60;;;8.30;69.60;;;;;;2587218;52;21491;-66
2021/03/16 06:02:38;;;;;;;2.83;1.23;;;8.30;70.30;;;;;;2587888;52;20993;-66
2021/03/16 06:05:07;;;;;;;3.78;1.35;;;8.30;69.50;;;;;;2586468;52;21044;-66
2021/03/16 06:07:33;;;;;;;3.75;1.62;;;8.30;69.60;;;;;;2341815;54;21015;-65
2021/03/16 06:09:59;;;;;;;4.20;1.30;;;8.30;69.70;;;;;;2587956;53;21590;-66
2021/03/16 06:12:38;;;;;;;4.32;1.60;;;8.30;69.80;;;;;;2340992;53;21449;-66
2021/03/16 06:15:37;;;;;;;2.65;1.05;;;8.30;69.70;;;;;;2586117;52;20976;-65
2021/03/16 06:18:04;;;;;;;3.65;1.48;;;8.30;69.20;;;;;;2585010;52;20947;-66
2021/03/16 06:20:32;;;;;;;2.78;1.10;;;8.30;70.00;;;;;;2344417;53;20916;-66
2021/03/16 06:23:06;;;;;;;3.87;1.35;;;8.30;70.10;;;;;;2329738;53;20936;-65
2021/03/16 06:25:34;;;;;;;3.90;1.50;;;8.30;70.00;;;;;;2342407;53;20951;-66
2021/03/16 06:28:10;;;;;;;3.03;1.33;;;8.30;70.00;;;;;;2584510;52;20933;-66
2021/03/16 06:30:37;;;;;;;5.10;1.70;;;8.30;69.80;;;;;;2333903;53;21368;-66
2021/03/16 06:33:04;;;;;;;3.97;1.62;;;8.20;70.00;;;;;;2340595;54;20956;-65
2021/03/16 06:35:30;;;;;;;4.00;1.80;;;8.30;70.10;;;;;;2333756;53;21055;-65
2021/03/16 06:38:19;;;;;;;9.73;4.57;;;8.30;70.10;;;;;;2342192;53;21063;-65
2021/03/16 06:40:46;;;;;;;8.63;3.90;;;8.30;69.40;;;;;;2331976;53;20923;-66
2021/03/16 06:43:12;;;;;;;8.05;2.60;;;8.40;70.20;;;;;;2338034;53;21397;-66
2021/03/16 06:45:39;;;;;;;4.85;2.00;;;8.40;70.30;;;;;;2340288;54;21015;-65
2021/03/16 06:48:27;;;;;;;5.05;2.20;;;8.40;70.40;;;;;;2341930;54;21008;-66
2021/03/16 06:50:54;;;;;;;4.03;1.87;;;8.40;70.10;;;;;;2323854;55;21772;-66
2021/03/16 06:53:29;;;;;;;3.35;1.77;;;8.50;70.50;;;;;;2590045;53;21468;-66
2021/03/16 06:56:01;;;;;;;6.40;2.08;;;8.50;70.30;;;;;;2345475;53;20994;-67
2021/03/16 06:58:35;;;;;;;6.93;2.25;;;8.50;70.70;;;;;;2343758;54;20964;-66
2021/03/16 07:01:13;;;;;;;5.62;1.90;;;8.60;70.90;;;;;;2589307;52;21722;-65
2021/03/16 07:03:39;;;;;;;4.00;1.73;;;8.60;70.80;;;;;;2346963;54;20963;-65
2021/03/16 07:06:13;;;;;;;3.50;1.58;;;8.70;71.10;;;;;;2572951;53;21503;-71
2021/03/16 07:08:40;;;;;;;2.92;1.25;;;8.70;71.00;;;;;;2347519;53;20979;-68
2021/03/16 07:11:10;;;;;;;4.28;1.73;;;8.70;71.10;;;;;;2586577;53;21023;-70
2021/03/16 07:13:39;;;;;;;3.92;1.30;;;8.80;71.20;;;;;;2341740;53;20985;-66
2021/03/16 07:16:06;;;;;;;5.53;1.87;;;8.80;70.90;;;;;;2340736;53;21016;-65
2021/03/16 07:18:36;;;;;;;3.10;1.33;;;8.90;70.90;;;;;;2584546;53;20928;-67
2021/03/16 07:21:05;;;;;;;4.95;1.60;;;8.90;70.50;;;;;;2325978;53;20914;-66
2021/03/16 07:23:48;;;;;;;2.67;1.50;;;8.90;70.60;;;;;;2330667;53;21039;-69
2021/03/16 07:26:15;;;;;;;3.70;1.35;;;8.90;70.50;;;;;;2339053;53;20991;-69
2021/03/16 07:28:44;;;;;;;3.55;1.70;;;9.00;70.60;;;;;;2585462;52;22075;-69
2021/03/16 07:31:10;;;;;;;4.37;1.80;;;9.00;70.50;;;;;;2586589;52;21019;-72
2021/03/16 07:33:37;;;;;;;4.53;2.45;;;9.00;70.50;;;;;;2583610;53;21014;-72
2021/03/16 07:36:04;;;;;;;4.45;1.98;;;9.00;70.50;;;;;;2572923;52;20923;-73
2021/03/16 07:38:30;;;;;;;4.62;2.00;;;9.10;70.50;;;;;;2339735;53;20928;-73
2021/03/16 07:41:00;;;;;;;4.50;2.03;;;9.10;70.50;;;;;;2339534;54;21834;-66
2021/03/16 07:44:26;;;;;;;5.05;2.90;;;9.10;70.50;;;;;;2581011;52;20944;-66
2021/03/16 07:46:59;;;;;;;4.53;2.40;;;9.20;69.20;;;;;;2348364;53;20901;-65
2021/03/16 07:49:33;;;;;;;4.45;2.60;;;9.20;70.50;;;;;;2332341;53;21461;-69
2021/03/16 07:51:59;;;;;;;6.60;2.35;;;9.20;70.40;;;;;;2350071;54;20984;-72
2021/03/16 07:54:36;;;;;;;5.85;2.37;;;9.20;70.70;;;;;;2342043;53;21012;-73
2021/03/16 07:57:04;;;;;;;7.07;2.22;;;9.30;70.40;;;;;;2343879;54;20977;-78
2021/03/16 07:59:34;;;;;;;4.32;1.85;;;9.30;70.70;;;;;;2589824;52;20947;-78
2021/03/16 08:02:02;;;;;;;4.30;2.17;;;9.30;70.70;;;;;;2590149;52;21787;-65
2021/03/16 08:04:38;;;;;;;6.12;1.95;;;9.40;70.80;;;;;;2324182;54;20933;-72
2021/03/16 08:07:07;;;;;;;7.93;2.47;;;9.40;70.50;;;;;;2343180;54;20988;-70
2021/03/16 08:09:52;;;;;;;6.00;2.05;;;9.40;70.70;;;;;;2347443;53;20907;-65
2021/03/16 08:12:24;;;;;;;4.43;1.62;;;9.50;70.10;;;;;;2589292;52;21048;-65
2021/03/16 08:14:55;;;;;;;3.62;1.67;;;9.50;70.40;;;;;;2346678;53;21007;-63
2021/03/16 08:17:41;;;;;;;5.40;2.00;;;9.50;70.60;;;;;;2343514;53;20953;-64
2021/03/16 08:20:07;;;;;;;5.20;1.62;;;9.50;69.80;;;;;;2590471;53;21012;-64
2021/03/16 08:22:34;;;;;;;4.57;1.75;;;9.50;70.60;;;;;;2342379;54;20933;-64
2021/03/16 08:25:09;;;;;;;5.93;1.52;;;9.60;70.90;;;;;;2343278;54;21509;-63
2021/03/16 08:27:38;;;;;;;5.03;1.42;;;9.60;70.40;;;;;;2590113;52;20980;-64
2021/03/16 08:30:06;;;;;;;5.55;1.65;;;9.60;70.70;;;;;;2345746;53;20959;-67
2021/03/16 08:32:33;;;;;;;5.68;1.35;;;9.60;70.70;;;;;;2590348;52;21032;-66
2021/03/16 08:34:59;;;;;;;4.87;1.70;;;9.70;70.70;;;;;;2342827;54;20976;-70
2021/03/16 08:37:27;;;;;;;3.40;1.30;;;9.50;70.50;;;;;;2343388;54;20976;-69
2021/03/16 08:39:54;;;;;;;5.45;1.60;;;9.70;70.60;;;;;;2343752;54;20960;-71
2021/03/16 08:42:21;;;;;;;4.95;1.60;;;9.70;70.70;;;;;;2591087;52;20948;-69
2021/03/16 08:44:48;;;;;;;4.32;1.30;;;9.80;70.70;;;;;;2343146;54;20956;-65
2021/03/16 08:47:18;;;;;;;5.60;1.48;;;9.80;70.70;;;;;;2343587;54;21777;-64
2021/03/16 08:49:46;;;;;;;3.62;1.50;;;9.80;70.40;;;;;;2341972;54;20992;-64
2021/03/16 08:52:31;;;;;;;6.12;1.48;;;9.90;70.70;;;;;;2346126;53;20991;-65
2021/03/16 08:54:59;;;;;;;4.32;1.50;;;9.90;69.80;;;;;;2346573;53;21006;-68
2021/03/16 08:57:26;;;;;;;4.12;1.30;;;9.90;70.60;;;;;;2346477;53;20955;-67
2021/03/16 08:59:54;;;;;;;4.95;1.70;;;9.90;70.60;;;;;;2342794;53;21003;-67
2021/03/16 09:02:30;;;;;;;4.32;1.62;;;10.00;69.60;;;;;;2347982;53;21358;-67
2021/03/16 09:04:57;;;;;;;4.85;1.62;;;10.00;69.30;;;;;;2341992;53;21103;-67
2021/03/16 09:07:31;;;;;;;5.25;1.65;;;10.00;69.90;;;;;;2586531;52;20960;-67
2021/03/16 09:10:11;;;;;;;3.80;1.55;;;10.10;69.50;;;;;;2345364;53;20955;-67
2021/03/16 09:12:41;;;;;;;5.47;1.30;;;10.10;69.30;;;;;;2324284;54;21036;-66
2021/03/16 09:15:27;;;;;;;3.75;1.17;;;10.20;69.80;;;;;;2327622;54;20968;-66
2021/03/16 09:18:03;;;;;;;6.25;1.48;;;10.20;68.90;;;;;;2588793;52;21503;-67
2021/03/16 09:20:35;;;;;;;3.50;1.42;;;10.30;69.40;;;;;;2590283;52;20990;-67
2021/03/16 09:23:12;;;;;;;5.28;1.90;;;10.30;69.30;;;;;;2343222;53;21001;-67
2021/03/16 09:25:45;;;;;;;3.62;1.50;;;10.30;68.90;;;;;;2590872;53;21651;-66
2021/03/16 09:28:13;;;;;;;5.47;1.42;;;10.40;69.30;;;;;;2588987;52;20932;-65
2021/03/16 09:30:45;;;;;;;5.22;1.52;;;10.40;69.80;;;;;;2343121;54;20936;-65
2021/03/16 09:33:14;;;;;;;3.80;1.15;;;10.50;69.60;;;;;;2589687;52;20924;-67
2021/03/16 09:35:40;;;;;;;4.53;1.17;;;10.50;70.50;;;;;;2343692;54;20948;-66
2021/03/16 09:38:17;;;;;;;7.32;1.55;;;10.60;70.00;;;;;;2589810;52;21042;-69
2021/03/16 09:40:46;;;;;;;6.30;1.40;;;10.60;69.80;;;;;;2347255;53;21027;-66
2021/03/16 09:43:23;;;;;;;3.37;1.33;;;10.70;69.30;;;;;;2587964;53;20943;-66
2021/03/16 09:45:51;;;;;;;6.12;1.10;;;10.70;69.00;;;;;;2589878;52;21205;-68
2021/03/16 09:48:18;;;;;;;6.15;1.08;;;10.70;69.20;;;;;;2346967;53;21427;-66
2021/03/16 09:50:45;;;;;;;4.65;1.73;;;10.70;69.30;;;;;;2589816;52;20933;-66
2021/03/16 09:53:15;;;;;;;4.65;1.30;;;10.80;69.50;;;;;;2591222;52;21900;-67
2021/03/16 09:55:41;;;;;;;2.80;1.00;;;10.80;69.70;;;;;;2322575;54;20903;-67
2021/03/16 09:58:28;;;;;;;3.37;0.93;;;10.90;70.10;;;;;;2583125;52;20944;-66
2021/03/16 10:00:54;;;;;;;2.50;1.02;;;10.90;69.30;;;;;;2347597;54;20972;-67
2021/03/16 10:03:21;;;;;;;5.40;1.27;;;11.00;70.00;;;;;;2346112;53;20975;-68
2021/03/16 10:05:47;;;;;;;2.70;1.08;;;11.10;69.90;;;;;;2342938;53;20932;-70
2021/03/16 10:08:24;;;;;;;7.00;2.15;;;11.10;69.90;;;;;;2590731;52;20980;-69
2021/03/16 10:10:50;;;;;;;3.17;1.60;;;11.20;69.10;;;;;;2343440;54;20952;-68
2021/03/16 10:13:31;;;;;;;5.62;1.87;;;11.30;70.00;;;;;;2343362;54;21695;-68
2021/03/16 10:16:09;;;;;;;3.30;1.25;;;11.30;68.90;;;;;;2587873;52;21001;-66
2021/03/16 10:18:39;;;;;;;4.10;1.08;;;11.40;69.00;;;;;;2337634;53;21835;-68
2021/03/16 10:21:08;;;;;;;5.22;1.05;;;11.40;69.20;;;;;;2344689;54;20948;-67
2021/03/16 10:23:40;;;;;;;3.85;1.23;;;11.40;69.40;;;;;;2346986;53;21136;-69
2021/03/16 10:26:07;;;;;;;5.15;1.60;;;11.60;69.50;;;;;;2590282;52;20932;-67
2021/03/16 10:28:43;;;;;;;5.32;1.52;;;11.50;68.80;;;;;;2589195;52;20968;-73
2021/03/16 10:31:20;;;;;;;4.97;1.27;;;11.50;67.90;;;;;;2590662;52;20916;-67
2021/03/16 10:33:49;;;;;;;4.68;1.27;;;11.50;68.40;;;;;;2343400;53;21777;-63
2021/03/16 10:36:15;;;;;;;3.83;1.27;;;11.50;68.10;;;;;;2347669;54;20983;-68
2021/03/16 10:38:41;;;;;;;4.30;1.27;;;11.50;68.00;;;;;;2589178;52;21470;-67
2021/03/16 10:41:08;;;;;;;4.97;1.30;;;11.40;67.80;;;;;;2557730;52;1826381;-65
2021/03/16 10:43:35;;;;;;;4.25;1.20;;;11.40;67.90;;;;;;2590710;52;20984;-66
2021/03/16 10:46:05;;;;;;;4.35;1.20;;;11.40;68.00;;;;;;2345996;53;20963;-64
2021/03/16 10:48:35;;;;;;;5.45;1.60;;;11.40;68.10;;;;;;2342512;53;20960;-64
2021/03/16 10:51:03;;;;;;;3.83;1.08;;;11.40;68.30;;;;;;2343606;53;20963;-64
2021/03/16 10:53:29;;;;;;;3.95;1.30;;;11.40;68.40;;;;;;2589819;52;21804;-65
2021/03/16 10:55:59;;;;;;;6.72;1.05;;;11.40;68.40;;;;;;2588855;52;21052;-63
2021/03/16 10:58:26;;;;;;;5.57;1.27;;;11.50;68.40;;;;;;2339243;53;20972;-74
2021/03/16 11:00:53;;;;;;;3.22;0.80;;;11.50;68.70;;;;;;2571134;53;21481;-64
2021/03/16 11:03:25;;;;;;;2.33;0.70;;;11.60;69.30;;;;;;2347282;53;21625;-64
2021/03/16 11:05:52;;;;;;;3.12;0.93;;;11.60;69.50;;;;;;2345446;53;20964;-65
2021/03/16 11:08:19;;;;;;;2.35;0.90;;;11.70;69.60;;;;;;2342075;53;20944;-64
2021/03/16 11:10:46;;;;;;;6.07;1.08;;;11.80;69.70;;;;;;2344121;54;21016;-65
2021/03/16 11:13:15;;;;;;;2.85;0.80;;;11.90;69.60;;;;;;2350278;54;20992;-65
2021/03/16 11:15:48;;;;;;;2.28;0.90;;;12.00;69.30;;;;;;2317508;54;20991;-64
2021/03/16 11:18:28;;;;;;;2.33;0.80;;;11.90;69.00;;;;;;2323857;54;21063;-64
2021/03/16 11:20:57;;;;;;;3.60;1.05;;;12.10;69.00;;;;;;2589122;52;20961;-64
2021/03/16 11:23:29;;;;;;;3.05;0.85;;;12.20;69.00;;;;;;2334771;53;20963;-70
2021/03/16 11:26:14;;;;;;;2.67;0.90;;;12.20;69.10;;;;;;2338836;53;21074;-67
2021/03/16 11:28:41;;;;;;;3.95;0.82;;;12.40;69.70;;;;;;2340997;53;21050;-67
2021/03/16 11:31:17;;;;;;;4.35;1.00;;;12.50;69.50;;;;;;2347053;53;20912;-67
2021/03/16 11:33:48;;;;;;;4.25;1.15;;;12.60;69.40;;;;;;2323588;55;21611;-67
2021/03/16 11:36:21;;;;;;;2.75;1.00;;;12.60;68.70;;;;;;2562077;53;21316;-68
2021/03/16 11:38:55;;;;;;;6.07;1.37;;;12.60;67.40;;;;;;2325656;54;21104;-67
2021/03/16 11:41:33;;;;;;;3.75;1.12;;;12.60;66.90;;;;;;2339508;53;20979;-67
2021/03/16 11:44:12;;;;;;;3.85;1.17;;;12.60;65.90;;;;;;2576171;52;20966;-66
2021/03/16 11:46:45;;;;;;;8.57;3.17;;;12.60;65.90;;;;;;2346528;53;20964;-67
2021/03/16 11:49:15;;;;;;;3.53;1.50;;;12.50;65.60;;;;;;2578295;52;20944;-66
2021/03/16 11:51:44;;;;;;;4.20;1.20;;;12.40;65.30;;;;;;2342426;54;20935;-73
2021/03/16 11:54:13;;;;;;;3.45;1.15;;;12.40;65.10;;;;;;2589570;52;20909;-67
2021/03/16 11:56:44;;;;;;;3.47;1.02;;;12.30;65.10;;;;;;2341045;53;21113;-67
2021/03/16 11:59:12;;;;;;;3.58;1.40;;;12.20;65.20;;;;;;2341275;53;20994;-66
2021/03/16 12:01:38;;;;;;;3.62;1.10;;;12.10;65.10;;;;;;2345548;53;20959;-66
2021/03/16 12:04:13;;;;;;;5.25;1.20;;;12.10;65.20;;;;;;2587925;52;20964;-67
2021/03/16 12:06:39;;;;;;;2.55;1.00;;;12.00;65.40;;;;;;2343077;54;21743;-66
2021/03/16 12:09:07;;;;;;;4.62;1.10;;;11.90;65.50;;;;;;2588039;52;21020;-68
2021/03/16 12:11:34;;;;;;;2.72;1.00;;;11.90;66.10;;;;;;2562013;52;20999;-63
2021/03/16 12:14:01;;;;;;;4.10;1.10;;;11.90;66.40;;;;;;2338387;53;20943;-71
2021/03/16 12:16:28;;;;;;;3.03;1.08;;;11.90;66.90;;;;;;2337509;53;20996;-64
2021/03/16 12:18:54;;;;;;;2.65;1.00;;;11.90;67.20;;;;;;2589953;52;21020;-64
2021/03/16 12:21:20;;;;;;;2.90;1.02;;;12.00;67.50;;;;;;2343569;54;20992;-65
2021/03/16 12:23:46;;;;;;;2.87;1.30;;;12.00;67.50;;;;;;2589520;52;20936;-63
2021/03/16 12:26:14;;;;;;;2.90;1.20;;;12.10;67.50;;;;;;2346978;53;21011;-63
2021/03/16 12:28:42;;;;;;;4.03;1.20;;;12.10;67.10;;;;;;2590200;52;20956;-65
2021/03/16 12:31:08;;;;;;;3.53;1.33;;;12.20;67.00;;;;;;2346920;53;20997;-64
2021/03/16 12:33:36;;;;;;;3.83;1.40;;;12.20;66.90;;;;;;2344302;53;21426;-67
2021/03/16 12:36:03;;;;;;;4.85;1.45;;;12.20;66.50;;;;;;2344066;54;21669;-63
2021/03/16 12:38:30;;;;;;;3.87;1.52;;;12.20;66.30;;;;;;2347995;53;21000;-69
2021/03/16 12:40:57;;;;;;;4.28;1.73;;;12.20;66.20;;;;;;2350385;53;20960;-64
2021/03/16 12:43:27;;;;;;;6.87;1.67;;;12.20;65.90;;;;;;2338003;53;20979;-64
2021/03/16 12:45:54;;;;;;;4.70;1.80;;;12.10;65.40;;;;;;2344870;53;20923;-63
2021/03/16 12:48:20;;;;;;;3.05;1.30;;;12.10;65.20;;;;;;2589488;52;21012;-63
2021/03/16 12:50:52;;;;;;;4.62;1.70;;;12.00;65.10;;;;;;2347603;53;20942;-63
2021/03/16 12:53:19;;;;;;;3.42;1.70;;;12.00;64.60;;;;;;2589560;52;20917;-63
2021/03/16 12:55:46;;;;;;;5.25;1.73;;;11.90;64.40;;;;;;2346505;53;21896;-64
2021/03/16 12:58:12;;;;;;;4.10;1.70;;;11.80;64.60;;;;;;2589724;52;21760;-63
2021/03/16 13:00:39;;;;;;;3.60;1.75;;;11.80;64.70;;;;;;2590996;52;20940;-64
2021/03/16 13:03:07;;;;;;;4.40;1.55;;;11.70;64.90;;;;;;2562378;53;21018;-63
2021/03/16 13:05:33;;;;;;;4.35;1.45;;;11.70;65.70;;;;;;2344593;53;20964;-63
2021/03/16 13:08:01;;;;;;;4.95;1.85;;;11.60;65.10;;;;;;2590301;52;20960;-64
2021/03/16 13:10:31;;;;;;;6.57;2.25;;;11.60;65.30;;;;;;2335807;53;21035;-67
2021/03/16 13:12:58;;;;;;;4.30;2.10;;;11.60;65.70;;;;;;2572706;52;20927;-68